Latest Weather Observations for Emerald

IDQ60801

Issued at 10:32 am EST Thursday 11 February 2016 (issued every 30 minutes, with the page automatically refreshed every 10 minutes)

About weather observations | Map of weather stations | Latest weather observations for QLD | Other Formats
Station Details ID: 035264 Name: EMERALD AIRPORT Lat: -23.57 Lon: 148.18 Height: 189.4 m
Data from the previous 72 hours. | See also: Recent months at Emerald
Date/Time
EST
Temp
°C
App
Temp
°C
Dew
Point
Rel
Hum
%
Delta-T
°C
Wind Press
QNH
hPa
Press
MSL
hPa
Rain
since 9 am
mm
Dir
 
Spd
km/h
Gust
km/h
Spd
kts
Gust
kts
11/10:30am 28.5 31.1 20.0 60 5.6 SE 6 15 3 8 1012.4 - 0.0
11/10:00am 27.3 29.5 19.6 62 5.0 SSE 7 13 4 7 1012.6 - 0.0
11/09:30am 26.6 29.1 20.2 68 4.2 ESE 7 11 4 6 1012.7 - 0.0
11/09:00am 26.0 28.5 21.0 74 3.3 SE 9 17 5 9 1013.0 1011.8 0.0
11/08:30am 24.9 26.6 21.0 79 2.6 SE 13 17 7 9 1012.8 - 0.0
11/08:00am 24.1 27.4 21.8 87 1.5 ESE 7 11 4 6 1012.6 - 0.0
11/07:30am 23.2 26.2 22.0 93 0.8 SE 9 11 5 6 1012.7 - 0.0
11/07:00am 22.3 25.3 22.0 98 0.2 SSE 9 11 5 6 1012.3 - 0.0
11/06:30am 21.7 25.0 21.4 98 0.2 S 6 7 3 4 1011.9 - 0.0
11/06:00am 21.8 25.5 21.5 98 0.2 S 4 7 2 4 1011.3 1010.1 0.0
11/05:30am 21.6 25.2 21.3 98 0.2 SE 4 7 2 4 1010.8 - 0.0
11/05:00am 21.9 26.0 20.7 93 0.8 CALM 0 0 0 0 1010.4 - 0.0
11/04:30am 22.0 26.0 20.6 92 0.9 CALM 0 0 0 0 1010.3 - 0.0
11/04:00am 21.9 25.8 20.4 91 1.0 CALM 0 0 0 0 1010.3 - 0.0
11/03:30am 21.9 25.5 20.5 92 0.9 SE 2 6 1 3 1010.2 - 0.0
11/03:00am 21.9 24.7 20.5 92 0.9 S 6 9 3 5 1010.1 1008.8 0.0
11/02:30am 21.4 24.5 20.2 93 0.8 E 4 6 2 3 1010.1 - 0.0
11/02:00am 21.4 23.3 19.7 90 1.1 E 9 9 5 5 1010.1 - 0.0
11/01:30am 22.0 23.0 18.6 81 2.2 ESE 11 13 6 7 1010.1 - 0.0
11/01:00am 22.3 23.2 18.5 79 2.4 ESE 11 13 6 7 1010.3 - 0.0
11/12:30am 23.5 23.7 17.7 70 3.6 E 13 20 7 11 1010.7 - 0.0
11/12:00am 23.1 24.1 17.8 72 3.3 SSE 9 13 5 7 1010.6 1009.3 0.0
 
Date/Time
EST
Temp
°C
App
Temp
°C
Dew
Point
Rel
Hum
%
Delta-T
°C
Wind Press
QNH
hPa
Press
MSL
hPa
Rain
since 9 am
mm
Dir
 
Spd
km/h
Gust
km/h
Spd
kts
Gust
kts
10/11:30pm 23.4 23.9 17.4 69 3.7 SE 11 11 6 6 1010.9 - 0.0
10/11:00pm 23.9 24.4 17.4 67 4.1 SSE 11 11 6 6 1011.1 - 0.0
10/10:30pm 24.0 24.3 17.0 65 4.4 SE 11 13 6 7 1011.4 - 0.0
10/10:00pm 24.3 24.3 17.1 64 4.5 SE 13 15 7 8 1011.2 - 0.0
10/09:30pm 24.8 25.1 17.0 62 4.9 SSE 11 13 6 7 1011.2 - 0.0
10/09:00pm 24.8 25.6 17.3 63 4.7 SE 9 11 5 6 1011.0 1009.7 0.0
10/08:30pm 25.4 25.6 16.8 59 5.4 SE 11 13 6 7 1010.9 - 0.0
10/08:00pm 25.7 26.0 17.1 59 5.4 SE 11 15 6 8 1010.7 - 0.0
10/07:30pm 26.1 26.4 16.9 57 5.8 SE 11 13 6 7 1010.5 - 0.0
10/07:00pm 27.0 26.9 16.0 51 6.8 SE 11 13 6 7 1010.2 - 0.0
10/06:30pm 28.5 28.6 16.4 48 7.6 ESE 11 17 6 9 1010.1 - 0.0
10/06:00pm 29.7 28.8 15.8 43 8.7 ESE 15 19 8 10 1009.8 1008.5 0.0
10/05:30pm 30.3 28.5 14.4 38 9.7 SE 17 24 9 13 1009.6 - 0.0
10/05:00pm 30.8 29.1 14.8 37 9.9 ESE 17 24 9 13 1009.4 - 0.0
10/04:30pm 30.6 29.3 14.7 38 9.8 ESE 15 24 8 13 1009.5 - 0.0
10/04:00pm 30.7 29.4 14.8 38 9.8 SSE 15 22 8 12 1009.7 - 0.0
10/03:30pm 30.2 28.1 13.5 36 10.1 SSE 17 26 9 14 1009.8 - 0.0
10/03:00pm 29.5 27.6 14.1 39 9.4 SSE 17 30 9 16 1010.0 1008.7 0.0
10/02:30pm 30.1 29.0 15.4 41 9.1 SE 15 22 8 12 1010.2 - 0.0
10/02:00pm 30.3 28.4 15.2 40 9.3 SSE 19 26 10 14 1010.4 - 0.0
10/01:30pm 30.0 27.9 15.3 41 9.1 SSE 20 28 11 15 1010.8 - 0.0
10/01:00pm 29.4 28.1 15.9 44 8.4 SSE 17 32 9 17 1011.1 - 0.0
10/12:30pm 28.8 27.2 16.0 45 8.0 SSE 19 26 10 14 1011.5 - 0.0
10/12:00pm 28.9 29.3 18.1 52 6.9 SE 13 19 7 10 1012.2 1011.0 0.0
10/11:30am 28.5 28.1 18.0 53 6.7 ESE 17 28 9 15 1012.6 - 0.0
10/11:00am 27.4 27.2 17.6 55 6.2 SSE 15 26 8 14 1012.8 - 0.0
10/10:30am 27.2 26.8 17.1 54 6.4 SE 15 26 8 14 1013.2 - 0.0
10/10:00am 26.7 26.5 17.5 57 5.8 SE 15 24 8 13 1013.3 - 0.0
10/09:30am 25.8 24.8 16.6 56 5.7 SE 17 22 9 12 1013.5 - 0.0
10/09:00am 25.2 24.3 17.7 63 4.7 SE 19 28 10 15 1013.6 1012.4 0.0
10/08:30am 24.8 23.2 18.3 67 4.1 SE 24 30 13 16 1013.5 - 0.0
10/08:00am 24.0 22.1 17.7 68 4.0 SSE 24 32 13 17 1013.3 - 0.0
10/07:30am 23.4 22.5 18.1 72 3.3 SE 20 33 11 18 1013.0 - 0.0
10/07:00am 22.3 23.1 19.8 86 1.6 SSE 15 22 8 12 1012.7 - 0.0
10/06:30am 21.4 23.8 20.9 97 0.3 S 9 13 5 7 1012.2 - 0.0
10/06:00am 20.7 23.3 20.4 98 0.2 S 7 7 4 4 1012.0 1010.8 0.0
10/05:30am 20.8 23.0 20.5 98 0.2 SSE 9 11 5 6 1011.7 - 0.0
10/05:00am 21.0 23.2 20.3 96 0.5 SSE 9 11 5 6 1011.5 - 0.0
10/04:30am 21.2 23.7 20.2 94 0.6 ENE 7 9 4 5 1011.3 - 0.0
10/04:00am 21.2 23.8 20.4 95 0.5 E 7 9 4 5 1011.1 - 0.0
10/03:30am 21.6 24.1 20.2 92 0.9 E 7 11 4 6 1011.1 - 0.0
10/03:00am 22.2 24.0 20.3 89 1.2 ENE 11 15 6 8 1010.9 1009.6 0.0
10/02:30am 22.3 24.3 20.8 91 1.0 ENE 11 15 6 8 1010.9 - 0.0
10/02:00am 22.3 24.6 20.6 90 1.1 ENE 9 13 5 7 1011.0 - 0.0
10/01:30am 22.6 25.2 20.5 88 1.4 NNE 7 9 4 5 1011.4 - 0.0
10/01:00am 23.1 24.5 20.4 85 1.8 NE 13 17 7 9 1011.6 - 0.0
10/12:30am 23.4 25.0 20.7 85 1.8 NE 13 19 7 10 1011.7 - 0.0
10/12:00am 23.6 25.7 20.9 85 1.8 NE 11 17 6 9 1011.9 1010.7 0.0
 
Date/Time
EST
Temp
°C
App
Temp
°C
Dew
Point
Rel
Hum
%
Delta-T
°C
Wind Press
QNH
hPa
Press
MSL
hPa
Rain
since 9 am
mm
Dir
 
Spd
km/h
Gust
km/h
Spd
kts
Gust
kts
09/11:30pm 24.0 25.4 20.3 80 2.4 NE 13 20 7 11 1012.1 - 0.0
09/11:00pm 24.6 24.9 19.7 74 3.2 ENE 17 20 9 11 1012.2 - 0.0
09/10:30pm 25.2 25.7 18.4 66 4.3 SE 13 17 7 9 1011.9 - 0.0
09/10:00pm 24.8 25.6 19.0 70 3.7 SE 13 15 7 8 1012.1 - 0.0
09/09:30pm 25.3 26.2 18.5 66 4.3 SE 11 15 6 8 1012.3 - 0.0
09/09:00pm 25.6 26.1 18.3 64 4.7 SE 13 15 7 8 1012.2 1011.0 0.0
09/08:30pm 25.6 26.2 18.5 65 4.5 SE 13 15 7 8 1012.1 - 0.0
09/08:00pm 26.3 26.7 18.2 61 5.2 SSE 13 15 7 8 1011.9 - 0.0
09/07:30pm 27.1 27.5 18.1 58 5.8 SSE 13 17 7 9 1011.7 - 0.0
09/07:00pm 28.0 27.6 17.2 52 6.8 SSE 15 17 8 9 1011.5 - 0.0
09/06:30pm 29.5 28.4 16.3 45 8.3 SSE 17 24 9 13 1011.2 - 0.0
09/06:00pm 30.5 28.8 15.8 41 9.2 SE 19 28 10 15 1010.9 1009.6 0.0
09/05:30pm 30.9 28.6 15.7 39 9.5 SE 22 32 12 17 1010.5 - 0.0
09/05:00pm 31.2 29.4 16.0 40 9.5 SE 20 33 11 18 1010.3 - 0.0
09/04:30pm 31.4 29.7 16.2 40 9.6 SE 20 30 11 16 1010.3 - 0.0
09/04:00pm 31.4 29.6 16.9 41 9.2 SSE 22 39 12 21 1010.5 - 0.0
09/03:30pm 31.6 29.4 16.0 39 9.8 ESE 22 32 12 17 1010.6 - 0.0
09/03:00pm 30.4 28.1 15.7 41 9.2 SE 22 32 12 17 1010.9 1009.6 0.0
09/02:30pm 30.5 28.6 15.8 41 9.2 ESE 20 32 11 17 1011.3 - 0.0
09/02:00pm 30.4 28.2 16.0 41 9.0 SE 22 30 12 16 1011.8 - 0.0
09/01:30pm 30.0 28.4 17.5 47 8.0 SE 22 35 12 19 1012.1 - 0.0
09/01:00pm 29.5 29.1 18.0 50 7.4 SE 17 30 9 16 1012.5 - 0.0
09/12:30pm 29.7 28.6 17.2 47 7.9 SE 19 33 10 18 1012.9 - 0.0
09/12:00pm 28.8 27.9 17.7 51 7.1 SE 19 28 10 15 1013.2 1012.0 0.0
09/11:30am 28.4 27.7 17.3 51 7.0 SE 17 26 9 14 1013.5 - 0.0
09/11:00am 28.2 28.6 19.1 57 5.9 SSE 15 24 8 13 1014.0 - 0.0
09/10:30am 27.4 27.4 18.9 59 5.5 SE 17 26 9 14 1014.5 - 0.0
09/10:00am 27.2 26.5 18.2 58 5.8 ESE 19 28 10 15 1014.7 - 0.0
09/09:30am 26.9 27.2 18.7 60 5.3 ESE 15 24 8 13 1014.8 - 0.0
09/09:00am 26.6 27.4 19.0 63 4.9 SE 13 20 7 11 1014.9 1013.6 0.0
09/08:30am 26.0 27.1 19.6 68 4.2 SE 13 20 7 11 1014.8 - 0.0
09/08:00am 24.9 26.0 19.7 73 3.4 SE 13 17 7 9 1014.7 - 0.0
09/07:30am 24.0 26.0 20.7 82 2.2 SE 11 15 6 8 1014.5 - 0.0
09/07:00am 23.3 25.2 21.4 89 1.3 E 13 17 7 9 1014.2 - 0.0
09/06:30am 22.4 24.5 21.7 96 0.5 E 13 15 7 8 1013.5 - 0.0
09/06:00am 22.0 24.0 21.5 97 0.3 E 13 17 7 9 1013.1 1011.9 0.0
09/05:30am 22.2 24.2 21.5 96 0.5 E 13 17 7 9 1012.7 - 0.0
09/05:00am 22.4 24.6 21.9 97 0.3 E 13 17 7 9 1012.3 - 0.0
09/04:30am 22.6 25.3 22.1 97 0.3 E 11 15 6 8 1012.1 - 0.0
09/04:00am 23.0 26.3 22.5 97 0.3 E 9 13 5 7 1011.9 - 0.0
09/03:30am 22.9 26.4 22.2 96 0.5 ENE 7 9 4 5 1011.9 - 0.0
09/03:00am 22.8 26.4 22.3 97 0.3 ENE 7 9 4 5 1011.7 1010.5 0.0
09/02:30am 22.7 26.1 22.0 96 0.5 ENE 7 9 4 5 1011.8 - 0.0
09/02:00am 23.1 26.7 22.3 95 0.5 NE 7 11 4 6 1011.9 - 0.0
09/01:30am 23.3 26.2 22.5 95 0.5 NE 11 13 6 7 1012.0 - 0.0
09/01:00am 23.4 26.3 22.4 94 0.7 NE 11 13 6 7 1012.3 - 0.0
09/12:30am 24.0 26.9 22.4 91 1.1 NE 11 17 6 9 1012.3 - 0.0
09/12:00am 24.2 27.1 22.5 90 1.1 ENE 11 13 6 7 1012.5 1011.3 0.0
 
Date/Time
EST
Temp
°C
App
Temp
°C
Dew
Point
Rel
Hum
%
Delta-T
°C
Wind Press
QNH
hPa
Press
MSL
hPa
Rain
since 9 am
mm
Dir
 
Spd
km/h
Gust
km/h
Spd
kts
Gust
kts
08/11:30pm 24.2 27.9 23.3 95 0.6 ENE 9 11 5 6 1012.6 - 0.0
08/11:00pm 24.2 27.9 23.3 95 0.6 ENE 9 9 5 5 1012.7 - 0.0
08/10:30pm 24.7 29.0 23.7 94 0.7 S 7 7 4 4 1012.4 - 0.0
08/10:00pm 24.9 29.2 23.7 93 0.8 S 7 7 4 4 1012.4 - 0.0
08/09:30pm 25.0 29.3 23.6 92 1.0 ESE 7 7 4 4 1012.4 - 0.0
08/09:00pm 25.6 30.5 24.7 95 0.6 SE 7 9 4 5 1012.5 1011.3 0.0
08/08:30pm 26.1 30.8 24.3 90 1.3 S 7 9 4 5 1012.4 - 0.0
08/08:00pm 26.2 30.5 24.2 89 1.4 S 9 11 5 6 1012.1 - 0.0
08/07:30pm 27.0 33.0 24.3 85 1.9 CALM 0 0 0 0 1011.8 - 0.0
08/07:00pm 27.9 32.8 22.4 72 3.7 CALM 0 0 0 0 1011.6 - 0.0
08/06:30pm 27.6 31.8 23.2 77 3.0 N 6 7 3 4 1011.3 - 0.0
08/06:00pm 28.2 31.3 22.9 73 3.6 N 11 13 6 7 1010.9 1009.6 0.0
08/05:30pm 28.7 31.7 22.0 67 4.5 ENE 9 15 5 8 1010.7 - 0.0
08/05:00pm 29.8 31.3 21.2 60 5.8 SE 15 22 8 12 1010.3 - 0.0
08/04:30pm 29.6 30.4 21.3 61 5.6 SSE 19 26 10 14 1010.3 - 0.0
08/04:00pm 29.7 30.5 21.4 61 5.6 SE 19 24 10 13 1010.3 - 0.0
08/03:30pm 29.9 30.5 21.0 59 6.0 S 19 30 10 16 1010.4 - 0.0
08/03:00pm 29.8 31.6 22.5 65 5.0 S 17 22 9 12 1010.7 1009.4 0.0
08/02:30pm 29.4 31.0 22.1 65 5.0 SE 17 24 9 13 1011.2 - 0.0
08/02:00pm 29.2 30.9 21.7 64 5.1 SSE 15 20 8 11 1011.6 - 0.0
08/01:30pm 28.6 30.0 22.6 70 4.1 SSE 19 26 10 14 1012.1 - 0.0
08/01:00pm 29.0 30.8 22.5 68 4.4 SE 17 24 9 13 1012.4 - 0.0
08/12:30pm 28.6 30.9 22.1 68 4.4 SSE 13 19 7 10 1012.8 - 0.0
08/12:00pm 28.6 31.6 23.3 73 3.7 ESE 13 20 7 11 1013.2 1012.0 0.0
08/11:30am 27.8 29.7 22.1 71 3.9 SE 15 22 8 12 1013.6 - 0.0
08/11:00am 27.5 29.1 22.9 76 3.1 SE 19 28 10 15 1013.9 - 0.0

Other Formats:

Comma delimited format used in spreadsheet applications
http://www.bom.gov.au/fwo/IDQ60801/IDQ60801.94363.axf

JavaScript Object Notation format (JSON) in row-major order
http://www.bom.gov.au/fwo/IDQ60801/IDQ60801.94363.json